MOL Partner — 3EBZ5 — position and weather

sailwx.info

Track history (hours):
 
Tides and Currents Weather Stations Pressure Air Temp Water Temp Dewpoint Dewpoint Depression Visibility Wind Speed Wind Dir Waves Ship Positions

MOL Partner

Last reported at 2015-Mar-30 22:06 UTC. Time now 2015-Mar-31 05:28 UTC.
Position N 01°56' E 102°19'.

Length 293 m; draft 11.4 m.

Type: Ship (hazmat cat D). MMSI: 371303000.

Date/timePositionNaut miles runAvg speedWind from/ knotsBaromVisibWave heightAir tempDewpointWater temp
2015-Mar-30 22:06N 01°56' E 102°19'1016.2
2015-Mar-30 21:30N 01°51' E 102°27'1616.8
2015-Mar-30 20:32N 01°44' E 102°41'2017.4
2015-Mar-30 19:21N 01°33' E 102°59'5017.2
2015-Mar-30 16:28N 01°09' E 103°42'1112.3
2015-Mar-30 15:33N 01°13' E 103°53'3 3.2
2015-Mar-30 14:33N 01°16' E 103°51'0 0.0
2015-Mar-30 13:31N 01°16' E 103°51'0 0.0
2015-Mar-30 12:31N 01°16' E 103°51'0 0.0
2015-Mar-30 11:31N 01°16' E 103°51'0 0.0
2015-Mar-30 10:31N 01°16' E 103°51'0 0.0
2015-Mar-30 09:31N 01°16' E 103°51'0 0.0
2015-Mar-30 08:31N 01°16' E 103°51'0 0.0
2015-Mar-30 07:07N 01°16' E 103°51'0 0.0
2015-Mar-30 06:31N 01°16' E 103°51'0 0.0
2015-Mar-30 05:31N 01°16' E 103°51'0 0.0
2015-Mar-30 04:31N 01°16' E 103°51'0 0.0
2015-Mar-30 03:13N 01°16' E 103°51'0 0.0
2015-Mar-30 02:31N 01°16' E 103°51'0 0.0
2015-Mar-30 01:19N 01°16' E 103°51'0 0.0
2015-Mar-30 00:25N 01°16' E 103°51'0 0.0
2015-Mar-29 23:31N 01°16' E 103°51'0 0.0
2015-Mar-29 22:31N 01°16' E 103°51'0 0.0
2015-Mar-29 21:31N 01°16' E 103°51'0 0.0
2015-Mar-29 20:31N 01°16' E 103°51'0 0.0
2015-Mar-29 19:28N 01°16' E 103°51'0 0.0
2015-Mar-29 18:31N 01°16' E 103°51'0 0.0
2015-Mar-29 17:31N 01°16' E 103°51'0 0.0
2015-Mar-29 16:31N 01°16' E 103°51'0 0.0
2015-Mar-29 15:25N 01°16' E 103°51'0 0.0
2015-Mar-29 14:31N 01°16' E 103°51'2 2.3
2015-Mar-29 13:33N 01°14' E 103°52'1 0.7
2015-Mar-29 12:33N 01°15' E 103°53'0 0.0
2015-Mar-29 11:33N 01°15' E 103°53'0 0.0
2015-Mar-29 10:33N 01°15' E 103°53'0 0.0
2015-Mar-29 09:33N 01°15' E 103°53'0 0.1
2015-Mar-29 08:27N 01°15' E 103°53'0 0.3
2015-Mar-29 07:30N 01°15' E 103°53'0 0.0
2015-Mar-29 06:33N 01°15' E 103°53'0 0.1
2015-Mar-29 05:33N 01°15' E 103°53'0 0.0
2015-Mar-29 04:15N 01°15' E 103°53'0 0.3
2015-Mar-29 03:33N 01°15' E 103°53'0 0.0
2015-Mar-29 02:30N 01°15' E 103°53'0 0.1
2015-Mar-29 00:27N 01°14' E 103°53'0 0.1
2015-Mar-28 23:33N 01°14' E 103°53'0 0.0
2015-Mar-28 22:33N 01°14' E 103°53'0 0.1
2015-Mar-28 21:27N 01°14' E 103°53'0 0.0
2015-Mar-28 19:29N 01°14' E 103°53'0 0.0
2015-Mar-28 18:27N 01°14' E 103°53'0 0.0
2015-Mar-28 17:27N 01°14' E 103°53'0 0.0
2015-Mar-28 16:30N 01°14' E 103°53'0 0.0
2015-Mar-28 14:15N 01°14' E 103°53'0 0.0
2015-Mar-28 12:33N 01°14' E 103°53'0 0.0
2015-Mar-28 11:33N 01°14' E 103°53'0 0.0
2015-Mar-28 10:27N 01°14' E 103°53'0 0.0
2015-Mar-28 09:27N 01°14' E 103°53'0 0.0
2015-Mar-28 08:33N 01°14' E 103°53'0 0.1
2015-Mar-28 07:33N 01°15' E 103°53'4 3.6
2015-Mar-28 06:33N 01°14' E 103°56'9 8.8
2015-Mar-28 05:33N 01°16' E 104°05'  
2015-Mar-23 10:30N 22°07' E 114°21'1612.5
2015-Mar-23 09:12N 22°16' E 114°06'3 5.4
2015-Mar-23 08:33N 22°20' E 114°08'0 0.2
2015-Mar-23 07:28N 22°20' E 114°08'0 0.0
2015-Mar-23 06:28N 22°20' E 114°08'0 0.0
2015-Mar-23 05:25N 22°20' E 114°08'0 0.0
2015-Mar-23 04:31N 22°20' E 114°08'0 0.0
2015-Mar-23 03:31N 22°20' E 114°08'0 0.0
2015-Mar-23 02:31N 22°20' E 114°08'0 0.0
2015-Mar-23 01:31N 22°20' E 114°08'0 0.0
2015-Mar-23 00:28N 22°20' E 114°08'0 0.0
2015-Mar-22 23:28N 22°20' E 114°08'0 0.0
2015-Mar-22 22:28N 22°20' E 114°08'0 0.0
2015-Mar-22 21:31N 22°20' E 114°08'0 0.0
2015-Mar-22 20:31N 22°20' E 114°08'0 0.0
2015-Mar-22 19:32N 22°20' E 114°08'6 5.4
2015-Mar-22 18:21N 22°14' E 114°09'6 7.1
2015-Mar-22 17:33N 22°09' E 114°14'1110.8
2015-Mar-22 16:33N 22°09' E 114°25'1512.2
2015-Mar-22 15:19N 22°09' E 114°42'14812.1
2015-Mar-22 03:05N 22°60' E 117°11'6913.9
2015-Mar-21 22:08N 23°41' E 118°11'813.7
2015-Mar-21 21:33N 23°46' E 118°18'1414.2
2015-Mar-21 20:33N 23°55' E 118°30'1914.5
2015-Mar-21 19:15N 24°07' E 118°46'1314.7
2015-Mar-21 18:22N 24°16' E 118°57'1414.4
2015-Mar-21 17:22N 24°25' E 119°09'1214.4
2015-Mar-21 16:33N 24°33' E 119°19'  
Track history (hours):
 
Tides and Currents Weather Stations Pressure Air Temp Water Temp Dewpoint Dewpoint Depression Visibility Wind Speed Wind Dir Waves Ship Positions

MOL Partner

Last reported at 2015-Mar-30 22:06 UTC. Time now 2015-Mar-31 05:28 UTC.
Position N 01°56' E 102°19'.

Length 293 m; draft 11.4 m.

Type: Ship (hazmat cat D). MMSI: 371303000.

Date/timePositionNaut miles runAvg speedWind from/ knotsBaromVisibWave heightAir tempDewpointWater temp
2015-Mar-30 22:06N 01°56' E 102°19'1016.2
2015-Mar-30 21:30N 01°51' E 102°27'1616.8
2015-Mar-30 20:32N 01°44' E 102°41'2017.4
2015-Mar-30 19:21N 01°33' E 102°59'5017.2
2015-Mar-30 16:28N 01°09' E 103°42'1112.3
2015-Mar-30 15:33N 01°13' E 103°53'3 3.2
2015-Mar-30 14:33N 01°16' E 103°51'0 0.0
2015-Mar-30 13:31N 01°16' E 103°51'0 0.0
2015-Mar-30 12:31N 01°16' E 103°51'0 0.0
2015-Mar-30 11:31N 01°16' E 103°51'0 0.0
2015-Mar-30 10:31N 01°16' E 103°51'0 0.0
2015-Mar-30 09:31N 01°16' E 103°51'0 0.0
2015-Mar-30 08:31N 01°16' E 103°51'0 0.0
2015-Mar-30 07:07N 01°16' E 103°51'0 0.0
2015-Mar-30 06:31N 01°16' E 103°51'0 0.0
2015-Mar-30 05:31N 01°16' E 103°51'0 0.0
2015-Mar-30 04:31N 01°16' E 103°51'0 0.0
2015-Mar-30 03:13N 01°16' E 103°51'0 0.0
2015-Mar-30 02:31N 01°16' E 103°51'0 0.0
2015-Mar-30 01:19N 01°16' E 103°51'0 0.0
2015-Mar-30 00:25N 01°16' E 103°51'0 0.0
2015-Mar-29 23:31N 01°16' E 103°51'0 0.0
2015-Mar-29 22:31N 01°16' E 103°51'0 0.0
2015-Mar-29 21:31N 01°16' E 103°51'0 0.0
2015-Mar-29 20:31N 01°16' E 103°51'0 0.0
2015-Mar-29 19:28N 01°16' E 103°51'0 0.0
2015-Mar-29 18:31N 01°16' E 103°51'0 0.0
2015-Mar-29 17:31N 01°16' E 103°51'0 0.0
2015-Mar-29 16:31N 01°16' E 103°51'0 0.0
2015-Mar-29 15:25N 01°16' E 103°51'0 0.0
2015-Mar-29 14:31N 01°16' E 103°51'2 2.3
2015-Mar-29 13:33N 01°14' E 103°52'1 0.7
2015-Mar-29 12:33N 01°15' E 103°53'0 0.0
2015-Mar-29 11:33N 01°15' E 103°53'0 0.0
2015-Mar-29 10:33N 01°15' E 103°53'0 0.0
2015-Mar-29 09:33N 01°15' E 103°53'0 0.1
2015-Mar-29 08:27N 01°15' E 103°53'0 0.3
2015-Mar-29 07:30N 01°15' E 103°53'0 0.0
2015-Mar-29 06:33N 01°15' E 103°53'0 0.1
2015-Mar-29 05:33N 01°15' E 103°53'0 0.0
2015-Mar-29 04:15N 01°15' E 103°53'0 0.3
2015-Mar-29 03:33N 01°15' E 103°53'0 0.0
2015-Mar-29 02:30N 01°15' E 103°53'0 0.1
2015-Mar-29 00:27N 01°14' E 103°53'0 0.1
2015-Mar-28 23:33N 01°14' E 103°53'0 0.0
2015-Mar-28 22:33N 01°14' E 103°53'0 0.1
2015-Mar-28 21:27N 01°14' E 103°53'0 0.0
2015-Mar-28 19:29N 01°14' E 103°53'0 0.0
2015-Mar-28 18:27N 01°14' E 103°53'0 0.0
2015-Mar-28 17:27N 01°14' E 103°53'0 0.0
2015-Mar-28 16:30N 01°14' E 103°53'0 0.0
2015-Mar-28 14:15N 01°14' E 103°53'0 0.0
2015-Mar-28 12:33N 01°14' E 103°53'0 0.0
2015-Mar-28 11:33N 01°14' E 103°53'0 0.0
2015-Mar-28 10:27N 01°14' E 103°53'0 0.0
2015-Mar-28 09:27N 01°14' E 103°53'0 0.0
2015-Mar-28 08:33N 01°14' E 103°53'0 0.1
2015-Mar-28 07:33N 01°15' E 103°53'4 3.6
2015-Mar-28 06:33N 01°14' E 103°56'9 8.8
2015-Mar-28 05:33N 01°16' E 104°05'  
2015-Mar-23 10:30N 22°07' E 114°21'1612.5
2015-Mar-23 09:12N 22°16' E 114°06'3 5.4
2015-Mar-23 08:33N 22°20' E 114°08'0 0.2
2015-Mar-23 07:28N 22°20' E 114°08'0 0.0
2015-Mar-23 06:28N 22°20' E 114°08'0 0.0
2015-Mar-23 05:25N 22°20' E 114°08'0 0.0
2015-Mar-23 04:31N 22°20' E 114°08'0 0.0
2015-Mar-23 03:31N 22°20' E 114°08'0 0.0
2015-Mar-23 02:31N 22°20' E 114°08'0 0.0
2015-Mar-23 01:31N 22°20' E 114°08'0 0.0
2015-Mar-23 00:28N 22°20' E 114°08'0 0.0
2015-Mar-22 23:28N 22°20' E 114°08'0 0.0
2015-Mar-22 22:28N 22°20' E 114°08'0 0.0
2015-Mar-22 21:31N 22°20' E 114°08'0 0.0
2015-Mar-22 20:31N 22°20' E 114°08'0 0.0
2015-Mar-22 19:32N 22°20' E 114°08'6 5.4
2015-Mar-22 18:21N 22°14' E 114°09'6 7.1
2015-Mar-22 17:33N 22°09' E 114°14'1110.8
2015-Mar-22 16:33N 22°09' E 114°25'1512.2
2015-Mar-22 15:19N 22°09' E 114°42'14812.1
2015-Mar-22 03:05N 22°60' E 117°11'6913.9
2015-Mar-21 22:08N 23°41' E 118°11'813.7
2015-Mar-21 21:33N 23°46' E 118°18'1414.2
2015-Mar-21 20:33N 23°55' E 118°30'1914.5
2015-Mar-21 19:15N 24°07' E 118°46'1314.7
2015-Mar-21 18:22N 24°16' E 118°57'1414.4
2015-Mar-21 17:22N 24°25' E 119°09'1214.4
2015-Mar-21 16:33N 24°33' E 119°19'  

Dump ship's entire track history